Terminal Aerodrome Forecast
Issued by NWS Dallas/Fort Worth, TX

Home | Current Version | Previous Version | Text Only | Print | Product List | Glossary On
Versions: 1 2 3 4 5 6 7 8 9 10 11 12 13 14 15 16 17 18 19 20 21 22 23 24 25 26 27 28 29 30 31 32 33
813
FTUS44 KFWD 260909 AAC
TAFACT
TAF AMD
KACT 260909Z 2609/2706 10006KT P6SM VCSH BKN025
      TEMPO 2611/2615 BKN015 BKN250
     FM261700 10004KT P6SM SCT025 BKN250
     FM261800 11008KT P6SM VCTS BKN040CB BKN150 BKN250
     FM270100 11008KT P6SM BKN040 BKN150 BKN250=

USA.gov is the U.S. government's official web portal to all federal, state and local government web resources and services.